sensor_id;sensor_type;location;lat;lon;timestamp;pressure;altitude;pressure_sealevel;temperature;humidity
74790;BME280;63318;52.406;13.416;2022-10-16T00:01:36;100748.67;;;14.83;80.96
74790;BME280;63318;52.406;13.416;2022-10-16T00:04:04;100749.25;;;14.82;80.94
74790;BME280;63318;52.406;13.416;2022-10-16T00:06:33;100753.77;;;14.82;80.98
74790;BME280;63318;52.406;13.416;2022-10-16T00:09:01;100756.29;;;14.82;81.00
74790;BME280;63318;52.406;13.416;2022-10-16T00:11:31;100763.95;;;14.79;80.98
74790;BME280;63318;52.406;13.416;2022-10-16T00:14:00;100769.25;;;14.76;81.04
74790;BME280;63318;52.406;13.416;2022-10-16T00:16:29;100770.27;;;14.78;81.04
74790;BME280;63318;52.406;13.416;2022-10-16T00:18:58;100769.45;;;14.88;80.56
74790;BME280;63318;52.406;13.416;2022-10-16T00:21:28;100763.51;;;14.90;80.76
74790;BME280;63318;52.406;13.416;2022-10-16T00:23:59;100762.80;;;14.92;80.77
74790;BME280;63318;52.406;13.416;2022-10-16T00:26:29;100759.56;;;14.95;80.98
74790;BME280;63318;52.406;13.416;2022-10-16T00:28:57;100766.17;;;14.98;80.98
74790;BME280;63318;52.406;13.416;2022-10-16T00:31:26;100775.75;;;15.01;81.09
74790;BME280;63318;52.406;13.416;2022-10-16T00:33:54;100783.98;;;15.07;81.28
74790;BME280;63318;52.406;13.416;2022-10-16T00:36:24;100780.96;;;15.11;81.29
74790;BME280;63318;52.406;13.416;2022-10-16T00:38:54;100784.73;;;15.14;81.39
74790;BME280;63318;52.406;13.416;2022-10-16T00:41:24;100787.73;;;15.12;81.63
74790;BME280;63318;52.406;13.416;2022-10-16T00:43:54;100787.77;;;15.12;81.43
74790;BME280;63318;52.406;13.416;2022-10-16T00:46:25;100784.70;;;15.12;81.49
74790;BME280;63318;52.406;13.416;2022-10-16T00:48:58;100780.69;;;15.12;81.48
74790;BME280;63318;52.406;13.416;2022-10-16T00:51:32;100779.06;;;15.10;81.37
74790;BME280;63318;52.406;13.416;2022-10-16T00:54:01;100778.88;;;15.09;81.34
74790;BME280;63318;52.406;13.416;2022-10-16T00:56:30;100778.54;;;15.09;81.32
74790;BME280;63318;52.406;13.416;2022-10-16T00:59:00;100784.75;;;15.16;80.92
74790;BME280;63318;52.406;13.416;2022-10-16T01:01:29;100786.14;;;15.17;80.86
74790;BME280;63318;52.406;13.416;2022-10-16T01:03:57;100784.33;;;15.17;81.00
74790;BME280;63318;52.406;13.416;2022-10-16T01:06:30;100782.34;;;15.19;81.07
74790;BME280;63318;52.406;13.416;2022-10-16T01:09:20;100784.02;;;15.20;81.13
74790;BME280;63318;52.406;13.416;2022-10-16T01:11:57;100785.95;;;15.22;81.36
74790;BME280;63318;52.406;13.416;2022-10-16T01:14:34;100784.67;;;15.24;81.36
74790;BME280;63318;52.406;13.416;2022-10-16T01:17:08;100779.87;;;15.26;81.26
74790;BME280;63318;52.406;13.416;2022-10-16T01:20:00;100784.15;;;15.25;81.43
74790;BME280;63318;52.406;13.416;2022-10-16T01:22:37;100789.66;;;15.21;81.51
74790;BME280;63318;52.406;13.416;2022-10-16T01:25:11;100793.68;;;15.21;81.61
74790;BME280;63318;52.406;13.416;2022-10-16T01:27:41;100796.96;;;15.22;81.35
74790;BME280;63318;52.406;13.416;2022-10-16T01:30:15;100801.73;;;15.22;81.29
74790;BME280;63318;52.406;13.416;2022-10-16T01:32:48;100807.24;;;15.20;81.26
74790;BME280;63318;52.406;13.416;2022-10-16T01:35:21;100810.83;;;15.17;80.93
74790;BME280;63318;52.406;13.416;2022-10-16T01:37:53;100814.84;;;15.11;81.03
74790;BME280;63318;52.406;13.416;2022-10-16T01:40:25;100814.57;;;15.10;80.99
74790;BME280;63318;52.406;13.416;2022-10-16T01:42:58;100821.33;;;15.18;80.73
74790;BME280;63318;52.406;13.416;2022-10-16T01:45:29;100823.74;;;15.17;80.66
74790;BME280;63318;52.406;13.416;2022-10-16T01:48:00;100827.05;;;15.16;80.76
74790;BME280;63318;52.406;13.416;2022-10-16T01:50:30;100828.08;;;15.15;80.93
74790;BME280;63318;52.406;13.416;2022-10-16T01:52:59;100825.56;;;15.16;81.08
74790;BME280;63318;52.406;13.416;2022-10-16T01:55:32;100822.98;;;15.16;81.14
74790;BME280;63318;52.406;13.416;2022-10-16T01:58:03;100835.58;;;15.17;81.27
74790;BME280;63318;52.406;13.416;2022-10-16T02:00:33;100833.65;;;15.18;81.42
74790;BME280;63318;52.406;13.416;2022-10-16T02:03:03;100836.80;;;15.15;81.50
74790;BME280;63318;52.406;13.416;2022-10-16T02:05:34;100835.95;;;15.17;81.59
74790;BME280;63318;52.406;13.416;2022-10-16T02:08:05;100837.61;;;15.18;81.55
74790;BME280;63318;52.406;13.416;2022-10-16T02:10:35;100836.33;;;15.18;81.44
74790;BME280;63318;52.406;13.416;2022-10-16T02:13:08;100839.90;;;15.19;81.31
74790;BME280;63318;52.406;13.416;2022-10-16T02:15:37;100849.05;;;15.18;81.37
74790;BME280;63318;52.406;13.416;2022-10-16T02:18:06;100854.33;;;15.19;81.06
74790;BME280;63318;52.406;13.416;2022-10-16T02:20:38;100855.41;;;15.26;80.70
74790;BME280;63318;52.406;13.416;2022-10-16T02:23:13;100856.10;;;15.24;80.84
74790;BME280;63318;52.406;13.416;2022-10-16T02:25:45;100857.52;;;15.24;80.97
74790;BME280;63318;52.406;13.416;2022-10-16T02:28:17;100853.18;;;15.25;81.10
74790;BME280;63318;52.406;13.416;2022-10-16T02:30:50;100843.95;;;15.24;81.24
74790;BME280;63318;52.406;13.416;2022-10-16T02:33:23;100835.24;;;15.27;81.35
74790;BME280;63318;52.406;13.416;2022-10-16T02:35:53;100838.30;;;15.32;81.35
74790;BME280;63318;52.406;13.416;2022-10-16T02:38:23;100842.98;;;15.36;81.44
74790;BME280;63318;52.406;13.416;2022-10-16T02:40:52;100850.64;;;15.34;81.47
74790;BME280;63318;52.406;13.416;2022-10-16T02:43:20;100852.37;;;15.35;81.44
74790;BME280;63318;52.406;13.416;2022-10-16T02:45:48;100854.75;;;15.36;81.40
74790;BME280;63318;52.406;13.416;2022-10-16T02:48:16;100848.04;;;15.36;81.34
74790;BME280;63318;52.406;13.416;2022-10-16T02:50:45;100848.71;;;15.36;81.19
74790;BME280;63318;52.406;13.416;2022-10-16T02:53:13;100848.13;;;15.34;81.05
74790;BME280;63318;52.406;13.416;2022-10-16T02:55:41;100853.94;;;15.30;81.19
74790;BME280;63318;52.406;13.416;2022-10-16T02:58:09;100853.15;;;15.31;80.94
74790;BME280;63318;52.406;13.416;2022-10-16T03:00:37;100849.88;;;15.40;80.55
74790;BME280;63318;52.406;13.416;2022-10-16T03:03:06;100852.46;;;15.40;80.54
74790;BME280;63318;52.406;13.416;2022-10-16T03:05:34;100854.20;;;15.39;80.67
74790;BME280;63318;52.406;13.416;2022-10-16T03:08:02;100859.11;;;15.37;80.78
74790;BME280;63318;52.406;13.416;2022-10-16T03:10:30;100865.42;;;15.38;80.85
74790;BME280;63318;52.406;13.416;2022-10-16T03:12:58;100871.75;;;15.38;80.96
74790;BME280;63318;52.406;13.416;2022-10-16T03:15:27;100879.98;;;15.38;80.92
74790;BME280;63318;52.406;13.416;2022-10-16T03:17:56;100885.83;;;15.33;81.15
74790;BME280;63318;52.406;13.416;2022-10-16T03:20:25;100891.67;;;15.30;81.07
74790;BME280;63318;52.406;13.416;2022-10-16T03:22:53;100881.46;;;15.28;81.05
74790;BME280;63318;52.406;13.416;2022-10-16T03:25:21;100873.20;;;15.26;80.90
74790;BME280;63318;52.406;13.416;2022-10-16T03:27:50;100866.98;;;15.24;80.80
74790;BME280;63318;52.406;13.416;2022-10-16T03:30:18;100874.92;;;15.20;80.81
74790;BME280;63318;52.406;13.416;2022-10-16T03:32:46;100886.01;;;15.16;80.72
74790;BME280;63318;52.406;13.416;2022-10-16T03:35:15;100895.75;;;15.11;80.76
74790;BME280;63318;52.406;13.416;2022-10-16T03:37:43;100895.73;;;15.09;80.75
74790;BME280;63318;52.406;13.416;2022-10-16T03:40:11;100904.33;;;15.14;80.44
74790;BME280;63318;52.406;13.416;2022-10-16T03:42:40;100904.75;;;15.11;80.46
74790;BME280;63318;52.406;13.416;2022-10-16T03:45:10;100909.14;;;15.10;80.65
74790;BME280;63318;52.406;13.416;2022-10-16T03:47:39;100912.06;;;15.09;80.83
74790;BME280;63318;52.406;13.416;2022-10-16T03:50:08;100909.14;;;15.10;80.92
74790;BME280;63318;52.406;13.416;2022-10-16T03:52:36;100911.61;;;15.13;80.96
74790;BME280;63318;52.406;13.416;2022-10-16T03:55:05;100909.88;;;15.13;81.08
74790;BME280;63318;52.406;13.416;2022-10-16T03:57:34;100911.84;;;15.12;81.02
74790;BME280;63318;52.406;13.416;2022-10-16T04:00:02;100919.08;;;15.08;81.19
74790;BME280;63318;52.406;13.416;2022-10-16T04:02:30;100927.02;;;15.05;81.20
74790;BME280;63318;52.406;13.416;2022-10-16T04:04:59;100931.32;;;15.01;81.05
74790;BME280;63318;52.406;13.416;2022-10-16T04:07:27;100939.40;;;14.94;81.03
74790;BME280;63318;52.406;13.416;2022-10-16T04:09:55;100948.67;;;14.87;81.16
74790;BME280;63318;52.406;13.416;2022-10-16T04:12:23;100948.17;;;14.85;81.35
74790;BME280;63318;52.406;13.416;2022-10-16T04:14:51;100942.49;;;14.92;80.85
74790;BME280;63318;52.406;13.416;2022-10-16T04:17:20;100939.24;;;14.93;81.09
74790;BME280;63318;52.406;13.416;2022-10-16T04:19:48;100938.66;;;14.94;81.19
74790;BME280;63318;52.406;13.416;2022-10-16T04:22:16;100935.56;;;14.96;81.39
74790;BME280;63318;52.406;13.416;2022-10-16T04:24:44;100933.23;;;15.00;81.42
74790;BME280;63318;52.406;13.416;2022-10-16T04:27:12;100931.83;;;15.04;81.42
74790;BME280;63318;52.406;13.416;2022-10-16T04:29:40;100932.25;;;15.07;81.52
74790;BME280;63318;52.406;13.416;2022-10-16T04:32:10;100933.05;;;15.08;81.51
74790;BME280;63318;52.406;13.416;2022-10-16T04:34:40;100930.05;;;15.08;81.44
74790;BME280;63318;52.406;13.416;2022-10-16T04:37:08;100922.66;;;15.08;81.23
74790;BME280;63318;52.406;13.416;2022-10-16T04:39:36;100913.94;;;15.07;81.14
74790;BME280;63318;52.406;13.416;2022-10-16T04:42:04;100908.30;;;15.05;80.97
74790;BME280;63318;52.406;13.416;2022-10-16T04:44:33;100912.67;;;15.02;80.83
74790;BME280;63318;52.406;13.416;2022-10-16T04:47:01;100911.73;;;14.97;80.84
74790;BME280;63318;52.406;13.416;2022-10-16T04:49:29;100912.73;;;14.92;80.73
74790;BME280;63318;52.406;13.416;2022-10-16T04:51:57;100919.76;;;14.90;80.69
74790;BME280;63318;52.406;13.416;2022-10-16T04:54:25;100921.24;;;14.96;80.28
74790;BME280;63318;52.406;13.416;2022-10-16T04:56:53;100926.06;;;14.92;80.37
74790;BME280;63318;52.406;13.416;2022-10-16T04:59:22;100922.70;;;14.88;80.63
74790;BME280;63318;52.406;13.416;2022-10-16T05:01:50;100919.85;;;14.87;80.78
74790;BME280;63318;52.406;13.416;2022-10-16T05:04:19;100926.16;;;14.87;80.81
74790;BME280;63318;52.406;13.416;2022-10-16T05:06:47;100936.79;;;14.88;80.90
74790;BME280;63318;52.406;13.416;2022-10-16T05:09:15;100945.06;;;14.88;80.84
74790;BME280;63318;52.406;13.416;2022-10-16T05:11:43;100953.03;;;14.86;81.11
74790;BME280;63318;52.406;13.416;2022-10-16T05:14:12;100963.11;;;14.81;81.24
74790;BME280;63318;52.406;13.416;2022-10-16T05:16:40;100965.91;;;14.76;81.25
74790;BME280;63318;52.406;13.416;2022-10-16T05:19:08;100965.77;;;14.74;81.16
74790;BME280;63318;52.406;13.416;2022-10-16T05:21:36;100964.60;;;14.72;81.25
74790;BME280;63318;52.406;13.416;2022-10-16T05:24:05;100970.67;;;14.70;81.21
74790;BME280;63318;52.406;13.416;2022-10-16T05:26:33;100977.38;;;14.65;81.20
74790;BME280;63318;52.406;13.416;2022-10-16T05:29:01;100970.15;;;14.61;81.14
74790;BME280;63318;52.406;13.416;2022-10-16T05:31:30;100965.33;;;14.60;81.04
74790;BME280;63318;52.406;13.416;2022-10-16T05:34:00;100959.17;;;14.68;80.72
74790;BME280;63318;52.406;13.416;2022-10-16T05:36:29;100955.64;;;14.65;80.74
74790;BME280;63318;52.406;13.416;2022-10-16T05:38:57;100958.33;;;14.63;80.79
74790;BME280;63318;52.406;13.416;2022-10-16T05:41:26;100958.66;;;14.63;80.94
74790;BME280;63318;52.406;13.416;2022-10-16T05:43:54;100959.86;;;14.66;80.98
74790;BME280;63318;52.406;13.416;2022-10-16T05:46:22;100959.67;;;14.69;81.17
74790;BME280;63318;52.406;13.416;2022-10-16T05:48:52;100965.72;;;14.73;81.19
74790;BME280;63318;52.406;13.416;2022-10-16T05:51:21;100978.80;;;14.78;81.13
74790;BME280;63318;52.406;13.416;2022-10-16T05:53:49;100980.77;;;14.82;81.13
74790;BME280;63318;52.406;13.416;2022-10-16T05:56:17;100980.39;;;14.87;81.09
74790;BME280;63318;52.406;13.416;2022-10-16T05:58:45;100977.70;;;14.87;81.07
74790;BME280;63318;52.406;13.416;2022-10-16T06:01:15;100979.55;;;14.87;81.08
74790;BME280;63318;52.406;13.416;2022-10-16T06:03:44;100972.98;;;14.88;81.05
74790;BME280;63318;52.406;13.416;2022-10-16T06:06:14;100975.89;;;14.89;81.02
74790;BME280;63318;52.406;13.416;2022-10-16T06:08:43;100974.91;;;14.87;80.89
74790;BME280;63318;52.406;13.416;2022-10-16T06:11:14;100978.34;;;14.86;80.93
74790;BME280;63318;52.406;13.416;2022-10-16T06:13:43;100984.12;;;14.83;81.02
74790;BME280;63318;52.406;13.416;2022-10-16T06:16:11;100990.65;;;14.84;80.80
74790;BME280;63318;52.406;13.416;2022-10-16T06:18:40;100990.95;;;14.91;80.63
74790;BME280;63318;52.406;13.416;2022-10-16T06:21:14;100986.82;;;14.92;80.72
74790;BME280;63318;52.406;13.416;2022-10-16T06:23:43;100988.27;;;14.97;80.85
74790;BME280;63318;52.406;13.416;2022-10-16T06:26:12;100990.06;;;15.01;80.99
74790;BME280;63318;52.406;13.416;2022-10-16T06:28:41;100990.85;;;15.05;81.12
74790;BME280;63318;52.406;13.416;2022-10-16T06:31:11;100994.65;;;15.11;81.18
74790;BME280;63318;52.406;13.416;2022-10-16T06:33:39;100997.16;;;15.16;81.30
74790;BME280;63318;52.406;13.416;2022-10-16T06:36:11;100993.94;;;15.23;81.34
74790;BME280;63318;52.406;13.416;2022-10-16T06:38:40;101001.73;;;15.31;81.39
74790;BME280;63318;52.406;13.416;2022-10-16T06:41:11;101007.48;;;15.32;81.42
74790;BME280;63318;52.406;13.416;2022-10-16T06:43:39;101014.02;;;15.33;81.41
74790;BME280;63318;52.406;13.416;2022-10-16T06:46:09;101022.74;;;15.38;81.39
74790;BME280;63318;52.406;13.416;2022-10-16T06:48:38;101033.75;;;15.41;81.10
74790;BME280;63318;52.406;13.416;2022-10-16T06:51:09;101036.90;;;15.40;81.16
74790;BME280;63318;52.406;13.416;2022-10-16T06:53:39;101033.99;;;15.39;81.13
74790;BME280;63318;52.406;13.416;2022-10-16T06:56:12;101033.73;;;15.37;81.07
74790;BME280;63318;52.406;13.416;2022-10-16T06:58:41;101039.83;;;15.38;81.08
74790;BME280;63318;52.406;13.416;2022-10-16T07:01:09;101042.27;;;15.47;80.81
74790;BME280;63318;52.406;13.416;2022-10-16T07:03:39;101041.11;;;15.50;80.78
74790;BME280;63318;52.406;13.416;2022-10-16T07:06:09;101039.70;;;15.52;80.94
74790;BME280;63318;52.406;13.416;2022-10-16T07:08:38;101039.67;;;15.57;80.98
74790;BME280;63318;52.406;13.416;2022-10-16T07:11:09;101050.38;;;15.65;81.02
74790;BME280;63318;52.406;13.416;2022-10-16T07:13:38;101049.13;;;15.74;81.12
74790;BME280;63318;52.406;13.416;2022-10-16T07:16:09;101061.30;;;15.85;81.12
74790;BME280;63318;52.406;13.416;2022-10-16T07:18:38;101068.63;;;15.98;81.08
74790;BME280;63318;52.406;13.416;2022-10-16T07:21:08;101064.74;;;16.08;81.04
74790;BME280;63318;52.406;13.416;2022-10-16T07:23:37;101051.52;;;16.14;81.28
74790;BME280;63318;52.406;13.416;2022-10-16T07:26:06;101053.88;;;16.25;81.13
74790;BME280;63318;52.406;13.416;2022-10-16T07:28:37;101059.50;;;16.34;80.91
74790;BME280;63318;52.406;13.416;2022-10-16T07:31:14;101064.38;;;16.44;80.78
74790;BME280;63318;52.406;13.416;2022-10-16T07:33:44;101068.23;;;16.57;80.59
74790;BME280;63318;52.406;13.416;2022-10-16T07:36:14;101067.45;;;16.67;80.48
74790;BME280;63318;52.406;13.416;2022-10-16T07:38:42;101067.77;;;16.78;80.31
74790;BME280;63318;52.406;13.416;2022-10-16T07:41:13;101065.95;;;16.88;80.02
74790;BME280;63318;52.406;13.416;2022-10-16T07:43:47;101067.45;;;17.04;79.58
74790;BME280;63318;52.406;13.416;2022-10-16T07:46:16;101068.87;;;17.06;79.45
74790;BME280;63318;52.406;13.416;2022-10-16T07:48:45;101069.21;;;17.09;79.47
74790;BME280;63318;52.406;13.416;2022-10-16T07:51:14;101070.87;;;17.14;79.55
74790;BME280;63318;52.406;13.416;2022-10-16T07:53:43;101077.96;;;17.18;79.38
74790;BME280;63318;52.406;13.416;2022-10-16T07:56:13;101080.89;;;17.20;79.42
74790;BME280;63318;52.406;13.416;2022-10-16T07:58:41;101074.23;;;17.19;79.37
74790;BME280;63318;52.406;13.416;2022-10-16T08:01:12;101072.07;;;17.20;79.31
74790;BME280;63318;52.406;13.416;2022-10-16T08:03:43;101074.52;;;17.20;79.05
74790;BME280;63318;52.406;13.416;2022-10-16T08:06:12;101074.90;;;17.19;79.00
74790;BME280;63318;52.406;13.416;2022-10-16T08:08:41;101084.37;;;17.21;78.93
74790;BME280;63318;52.406;13.416;2022-10-16T08:11:09;101088.34;;;17.21;78.90
74790;BME280;63318;52.406;13.416;2022-10-16T08:13:38;101091.12;;;17.23;78.84
74790;BME280;63318;52.406;13.416;2022-10-16T08:16:07;101099.65;;;17.27;78.64
74790;BME280;63318;52.406;13.416;2022-10-16T08:18:36;101103.66;;;17.37;78.31
74790;BME280;63318;52.406;13.416;2022-10-16T08:21:11;101111.39;;;17.41;78.39
74790;BME280;63318;52.406;13.416;2022-10-16T08:23:40;101106.39;;;17.43;78.37
74790;BME280;63318;52.406;13.416;2022-10-16T08:26:09;101106.41;;;17.48;78.61
74790;BME280;63318;52.406;13.416;2022-10-16T08:28:38;101106.27;;;17.54;78.50
74790;BME280;63318;52.406;13.416;2022-10-16T08:31:14;101107.46;;;17.62;78.50
74790;BME280;63318;52.406;13.416;2022-10-16T08:33:44;101107.59;;;17.69;78.38
74790;BME280;63318;52.406;13.416;2022-10-16T08:36:13;101101.39;;;17.76;78.33
74790;BME280;63318;52.406;13.416;2022-10-16T08:38:41;101106.80;;;17.82;77.98
74790;BME280;63318;52.406;13.416;2022-10-16T08:41:21;101111.18;;;17.85;77.71
74790;BME280;63318;52.406;13.416;2022-10-16T08:44:06;101108.21;;;17.89;77.51
74790;BME280;63318;52.406;13.416;2022-10-16T08:46:48;101106.88;;;17.92;77.38
74790;BME280;63318;52.406;13.416;2022-10-16T08:49:18;101103.14;;;17.93;77.17
74790;BME280;63318;52.406;13.416;2022-10-16T08:51:47;101104.46;;;17.97;76.86
74790;BME280;63318;52.406;13.416;2022-10-16T08:54:26;101111.35;;;18.08;76.54
74790;BME280;63318;52.406;13.416;2022-10-16T08:56:57;101116.61;;;18.07;76.40
74790;BME280;63318;52.406;13.416;2022-10-16T08:59:27;101121.40;;;18.11;76.41
74790;BME280;63318;52.406;13.416;2022-10-16T09:01:55;101123.09;;;18.14;76.40
74790;BME280;63318;52.406;13.416;2022-10-16T09:04:51;101125.04;;;18.17;76.46
74790;BME280;63318;52.406;13.416;2022-10-16T09:07:27;101127.33;;;18.13;76.35
74790;BME280;63318;52.406;13.416;2022-10-16T09:10:04;101126.83;;;18.15;75.90
74790;BME280;63318;52.406;13.416;2022-10-16T09:12:39;101132.79;;;18.18;75.98
74790;BME280;63318;52.406;13.416;2022-10-16T09:15:16;101136.41;;;18.32;76.07
74790;BME280;63318;52.406;13.416;2022-10-16T09:17:54;101145.00;;;18.48;75.90
74790;BME280;63318;52.406;13.416;2022-10-16T09:20:31;101154.25;;;18.68;74.93
74790;BME280;63318;52.406;13.416;2022-10-16T09:23:14;101155.30;;;18.96;74.81
74790;BME280;63318;52.406;13.416;2022-10-16T09:25:45;101156.36;;;19.10;74.17
74790;BME280;63318;52.406;13.416;2022-10-16T09:28:15;101150.73;;;19.14;74.07
74790;BME280;63318;52.406;13.416;2022-10-16T09:30:47;101150.98;;;19.13;73.95
74790;BME280;63318;52.406;13.416;2022-10-16T09:33:17;101144.61;;;19.11;73.93
74790;BME280;63318;52.406;13.416;2022-10-16T09:35:47;101140.73;;;19.15;73.09
74790;BME280;63318;52.406;13.416;2022-10-16T09:38:28;101142.23;;;19.24;73.46
74790;BME280;63318;52.406;13.416;2022-10-16T09:40:58;101143.52;;;19.35;72.85
74790;BME280;63318;52.406;13.416;2022-10-16T09:43:31;101150.85;;;19.48;72.97
74790;BME280;63318;52.406;13.416;2022-10-16T09:46:02;101156.02;;;19.59;72.87
74790;BME280;63318;52.406;13.416;2022-10-16T09:48:36;101170.84;;;19.75;72.14
74790;BME280;63318;52.406;13.416;2022-10-16T09:51:13;101172.80;;;19.87;71.65
74790;BME280;63318;52.406;13.416;2022-10-16T09:53:45;101171.09;;;19.95;71.54
74790;BME280;63318;52.406;13.416;2022-10-16T09:56:24;101173.42;;;19.97;71.41
74790;BME280;63318;52.406;13.416;2022-10-16T09:58:54;101171.55;;;19.93;71.24
74790;BME280;63318;52.406;13.416;2022-10-16T10:01:28;101173.04;;;19.91;71.00
74790;BME280;63318;52.406;13.416;2022-10-16T10:03:59;101176.73;;;19.87;70.91
74790;BME280;63318;52.406;13.416;2022-10-16T10:06:29;101186.95;;;19.92;71.01
74790;BME280;63318;52.406;13.416;2022-10-16T10:09:00;101196.31;;;20.03;70.18
74790;BME280;63318;52.406;13.416;2022-10-16T10:11:49;101195.83;;;20.06;69.29
74790;BME280;63318;52.406;13.416;2022-10-16T10:14:22;101199.48;;;20.18;69.44
74790;BME280;63318;52.406;13.416;2022-10-16T10:16:52;101196.89;;;20.29;67.93
74790;BME280;63318;52.406;13.416;2022-10-16T10:19:23;101194.50;;;20.31;68.42
74790;BME280;63318;52.406;13.416;2022-10-16T10:21:51;101188.90;;;20.37;67.84
74790;BME280;63318;52.406;13.416;2022-10-16T10:24:20;101189.13;;;20.51;68.03
74790;BME280;63318;52.406;13.416;2022-10-16T10:26:57;101190.80;;;20.52;67.28
74790;BME280;63318;52.406;13.416;2022-10-16T10:29:39;101197.02;;;20.42;66.93
74790;BME280;63318;52.406;13.416;2022-10-16T10:32:20;101191.39;;;20.37;66.68
74790;BME280;63318;52.406;13.416;2022-10-16T10:35:11;101190.62;;;20.31;66.13
74790;BME280;63318;52.406;13.416;2022-10-16T10:38:00;101199.25;;;20.24;66.33
74790;BME280;63318;52.406;13.416;2022-10-16T10:40:37;101198.98;;;20.21;66.39
74790;BME280;63318;52.406;13.416;2022-10-16T10:43:12;101199.09;;;20.23;66.24
74790;BME280;63318;52.406;13.416;2022-10-16T10:45:46;101198.34;;;20.21;66.46
74790;BME280;63318;52.406;13.416;2022-10-16T10:48:25;101201.67;;;20.21;65.30
74790;BME280;63318;52.406;13.416;2022-10-16T10:50:57;101213.29;;;20.22;65.83
74790;BME280;63318;52.406;13.416;2022-10-16T10:53:38;101210.45;;;20.24;66.00
74790;BME280;63318;52.406;13.416;2022-10-16T10:56:19;101206.91;;;20.28;65.71
74790;BME280;63318;52.406;13.416;2022-10-16T10:59:12;101208.30;;;20.36;65.96
74790;BME280;63318;52.406;13.416;2022-10-16T11:01:50;101212.61;;;20.51;65.75
74790;BME280;63318;52.406;13.416;2022-10-16T11:04:48;101209.84;;;20.65;64.97
74790;BME280;63318;52.406;13.416;2022-10-16T11:07:27;101206.45;;;20.76;64.49
74790;BME280;63318;52.406;13.416;2022-10-16T11:09:59;101207.56;;;20.75;64.92
74790;BME280;63318;52.406;13.416;2022-10-16T11:12:32;101214.77;;;20.76;64.72
74790;BME280;63318;52.406;13.416;2022-10-16T11:15:11;101215.23;;;20.79;64.92
74790;BME280;63318;52.406;13.416;2022-10-16T11:17:45;101220.80;;;20.94;63.44
74790;BME280;63318;52.406;13.416;2022-10-16T11:20:20;101222.98;;;21.06;63.03
74790;BME280;63318;52.406;13.416;2022-10-16T11:22:54;101221.73;;;21.11;63.03
74790;BME280;63318;52.406;13.416;2022-10-16T11:25:30;101218.04;;;21.22;62.42
74790;BME280;63318;52.406;13.416;2022-10-16T11:28:03;101221.29;;;21.31;62.46
74790;BME280;63318;52.406;13.416;2022-10-16T11:30:44;101217.74;;;21.38;61.79
74790;BME280;63318;52.406;13.416;2022-10-16T11:33:24;101216.73;;;21.38;61.09
74790;BME280;63318;52.406;13.416;2022-10-16T11:35:59;101211.88;;;21.41;61.62
74790;BME280;63318;52.406;13.416;2022-10-16T11:38:30;101214.88;;;21.43;61.42
74790;BME280;63318;52.406;13.416;2022-10-16T11:41:04;101216.25;;;21.38;60.88
74790;BME280;63318;52.406;13.416;2022-10-16T11:43:41;101222.52;;;21.31;60.85
74790;BME280;63318;52.406;13.416;2022-10-16T11:46:15;101215.77;;;21.29;61.19
74790;BME280;63318;52.406;13.416;2022-10-16T11:48:48;101214.22;;;21.31;61.17
74790;BME280;63318;52.406;13.416;2022-10-16T11:51:22;101215.91;;;21.34;61.43
74790;BME280;63318;52.406;13.416;2022-10-16T11:53:59;101215.91;;;21.38;61.35
74790;BME280;63318;52.406;13.416;2022-10-16T11:56:31;101218.59;;;21.43;60.74
74790;BME280;63318;52.406;13.416;2022-10-16T11:59:02;101220.55;;;21.51;60.62
74790;BME280;63318;52.406;13.416;2022-10-16T12:01:36;101220.39;;;21.57;60.00
74790;BME280;63318;52.406;13.416;2022-10-16T12:04:19;101217.88;;;21.58;59.44
74790;BME280;63318;52.406;13.416;2022-10-16T12:06:52;101221.64;;;21.55;59.04
74790;BME280;63318;52.406;13.416;2022-10-16T12:09:26;101225.75;;;21.57;59.42
74790;BME280;63318;52.406;13.416;2022-10-16T12:11:56;101229.40;;;21.61;58.99
74790;BME280;63318;52.406;13.416;2022-10-16T12:14:38;101230.83;;;21.61;58.58
74790;BME280;63318;52.406;13.416;2022-10-16T12:17:24;101233.46;;;21.60;58.70
74790;BME280;63318;52.406;13.416;2022-10-16T12:20:00;101236.50;;;21.57;58.59
74790;BME280;63318;52.406;13.416;2022-10-16T12:22:30;101239.27;;;21.51;57.34
74790;BME280;63318;52.406;13.416;2022-10-16T12:25:00;101239.22;;;21.42;56.92
74790;BME280;63318;52.406;13.416;2022-10-16T12:27:29;101242.23;;;21.43;57.70
74790;BME280;63318;52.406;13.416;2022-10-16T12:30:00;101240.23;;;21.51;57.68
74790;BME280;63318;52.406;13.416;2022-10-16T12:32:34;101241.13;;;21.59;57.82
74790;BME280;63318;52.406;13.416;2022-10-16T12:35:04;101246.23;;;21.68;57.43
74790;BME280;63318;52.406;13.416;2022-10-16T12:37:35;101245.36;;;21.78;57.00
74790;BME280;63318;52.406;13.416;2022-10-16T12:40:23;101252.90;;;21.85;56.60
74790;BME280;63318;52.406;13.416;2022-10-16T12:42:53;101250.25;;;21.91;56.67
74790;BME280;63318;52.406;13.416;2022-10-16T12:45:30;101250.02;;;21.91;56.15
74790;BME280;63318;52.406;13.416;2022-10-16T12:47:59;101249.58;;;21.92;56.20
74790;BME280;63318;52.406;13.416;2022-10-16T12:50:57;101250.39;;;21.96;56.34
74790;BME280;63318;52.406;13.416;2022-10-16T12:53:26;101253.00;;;22.04;55.20
74790;BME280;63318;52.406;13.416;2022-10-16T12:56:03;101252.27;;;22.04;55.29
74790;BME280;63318;52.406;13.416;2022-10-16T12:58:48;101249.98;;;22.11;55.63
74790;BME280;63318;52.406;13.416;2022-10-16T13:04:32;101256.96;;;22.21;55.12
74790;BME280;63318;52.406;13.416;2022-10-16T13:07:17;101258.48;;;22.13;55.27